PWSweather.com
Personal Weather Stations
Station Observations
KCOGRAND2
Redlands, Southcamp Road & Dakota Circle, Grand Junction, CO 81507

Redlands, Southcamp Road & Dakota CircleGrand Junction, CO 81507

Lat: 39.055, Lon: -108.637

Elevation: 4870

Station Type: RadioShack WX200

Latest ConditionsUpdated 7:02:10 AM MST Sunday, Jan 22, 2017
Currently Today's Max Today's Min Today's Average
Temperature 23.0°F-5.0°C 32.9°F0.5°C 23.0°F-5.0°C 28.3°F-2.1°C
Dew Point 14.7°F-9.6°C 20.7°F-6.3°C 10.8°F-11.8°C 14.2°F-9.9°C
Winds Calm Calm 9.0 mph SSW14.5 kmh SSW - 3.0 mph 4.8 kmh
Wind Gusts -- 13.4 mph21.6 kmh - -
Humidity 70% 71% 42% 56%
Pressure 25.07 in849.0 mb 25.07 in849.0 mb 24.95 in844.9 mb -
Hour Temp Dew Point Humidity Winds Wind Gusts Pressure Precip Precip Rate Daily Precip Total
07:02 AM 23.0°F-5.0°C 14.7°F-9.6°C 70% Calm Calm -- 25.07 in849.0 mb 0.00 in0.0 mm 0.00 in0.0 mm 0.00 in0.0 mm
06:57 AM 23.0°F-5.0°C 14.0°F-10.0°C 68% Calm Calm -- 25.07 in849.0 mb 0.00 in0.0 mm 0.00 in0.0 mm 0.00 in0.0 mm
06:52 AM 23.4°F-4.8°C 14.0°F-10.0°C 67% Calm Calm -- 25.07 in849.0 mb 0.00 in0.0 mm 0.00 in0.0 mm 0.00 in0.0 mm
06:47 AM 23.2°F-4.9°C 13.5°F-10.3°C 66% Calm Calm -- 25.07 in849.0 mb 0.00 in0.0 mm 0.00 in0.0 mm 0.00 in0.0 mm
06:42 AM 23.5°F-4.7°C 13.8°F-10.1°C 66% Calm Calm -- 25.07 in849.0 mb 0.00 in0.0 mm 0.00 in0.0 mm 0.00 in0.0 mm
06:37 AM 23.9°F-4.5°C 13.8°F-10.1°C 65% Calm Calm -- 25.07 in849.0 mb 0.00 in0.0 mm 0.00 in0.0 mm 0.00 in0.0 mm
06:32 AM 24.1°F-4.4°C 13.6°F-10.2°C 64% Calm Calm -- 25.07 in849.0 mb 0.00 in0.0 mm 0.00 in0.0 mm 0.00 in0.0 mm
06:27 AM 24.4°F-4.2°C 13.6°F-10.2°C 63% Calm Calm -- 25.07 in849.0 mb 0.00 in0.0 mm 0.00 in0.0 mm 0.00 in0.0 mm
06:22 AM 25.3°F-3.7°C 14.2°F-9.9°C 62% Calm Calm -- 25.07 in849.0 mb 0.00 in0.0 mm 0.00 in0.0 mm 0.00 in0.0 mm
06:17 AM 25.7°F-3.5°C 13.5°F-10.3°C 59% Calm Calm -- 25.07 in849.0 mb 0.00 in0.0 mm 0.00 in0.0 mm 0.00 in0.0 mm
06:12 AM 25.7°F-3.5°C 12.9°F-10.6°C 58% Calm Calm -- 25.07 in849.0 mb 0.00 in0.0 mm 0.00 in0.0 mm 0.00 in0.0 mm
06:07 AM 25.7°F-3.5°C 13.8°F-10.1°C 60% Calm Calm -- 25.07 in849.0 mb 0.00 in0.0 mm 0.00 in0.0 mm 0.00 in0.0 mm
06:02 AM 25.3°F-3.7°C 14.5°F-9.7°C 63% Calm Calm -- 25.07 in849.0 mb 0.00 in0.0 mm 0.00 in0.0 mm 0.00 in0.0 mm
05:57 AM 25.0°F-3.9°C 14.2°F-9.9°C 63% Calm Calm -- 25.04 in848.0 mb 0.00 in0.0 mm 0.00 in0.0 mm 0.00 in0.0 mm
05:52 AM 24.6°F-4.1°C 13.1°F-10.5°C 61% Calm Calm -- 25.04 in848.0 mb 0.00 in0.0 mm 0.00 in0.0 mm 0.00 in0.0 mm
05:47 AM 24.6°F-4.1°C 12.7°F-10.7°C 60% Calm Calm -- 25.04 in848.0 mb 0.00 in0.0 mm 0.00 in0.0 mm 0.00 in0.0 mm
05:42 AM 24.6°F-4.1°C 12.0°F-11.1°C 58% Calm Calm -- 25.04 in848.0 mb 0.00 in0.0 mm 0.00 in0.0 mm 0.00 in0.0 mm
05:37 AM 24.6°F-4.1°C 11.1°F-11.6°C 56% Calm Calm -- 25.04 in848.0 mb 0.00 in0.0 mm 0.00 in0.0 mm 0.00 in0.0 mm
05:32 AM 24.6°F-4.1°C 10.8°F-11.8°C 55% Calm Calm -- 25.04 in848.0 mb 0.00 in0.0 mm 0.00 in0.0 mm 0.00 in0.0 mm
05:27 AM 25.0°F-3.9°C 10.8°F-11.8°C 54% Calm Calm -- 25.04 in848.0 mb 0.00 in0.0 mm 0.00 in0.0 mm 0.00 in0.0 mm
05:22 AM 25.9°F-3.4°C 11.1°F-11.6°C 53% Calm Calm -- 25.04 in848.0 mb 0.00 in0.0 mm 0.00 in0.0 mm 0.00 in0.0 mm
05:17 AM 25.9°F-3.4°C 11.1°F-11.6°C 53% Calm Calm -- 25.04 in848.0 mb 0.00 in0.0 mm 0.00 in0.0 mm 0.00 in0.0 mm
05:12 AM 25.9°F-3.4°C 11.1°F-11.6°C 53% Calm Calm -- 25.04 in848.0 mb 0.00 in0.0 mm 0.00 in0.0 mm 0.00 in0.0 mm
05:07 AM 25.5°F-3.6°C 10.8°F-11.8°C 53% Calm Calm -- 25.04 in848.0 mb 0.00 in0.0 mm 0.00 in0.0 mm 0.00 in0.0 mm
05:02 AM 25.5°F-3.6°C 11.3°F-11.5°C 54% Calm Calm -- 25.04 in848.0 mb 0.00 in0.0 mm 0.00 in0.0 mm 0.00 in0.0 mm
04:57 AM 25.7°F-3.5°C 11.3°F-11.5°C 54% Calm Calm -- 25.04 in848.0 mb 0.00 in0.0 mm 0.00 in0.0 mm 0.00 in0.0 mm
04:52 AM 25.5°F-3.6°C 11.7°F-11.3°C 55% Calm Calm -- 25.04 in848.0 mb 0.00 in0.0 mm 0.00 in0.0 mm 0.00 in0.0 mm
04:47 AM 25.5°F-3.6°C 11.3°F-11.5°C 54% Calm Calm -- 25.04 in848.0 mb 0.00 in0.0 mm 0.00 in0.0 mm 0.00 in0.0 mm
04:42 AM 25.5°F-3.6°C 11.3°F-11.5°C 54% Calm Calm -- 25.04 in848.0 mb 0.00 in0.0 mm 0.00 in0.0 mm 0.00 in0.0 mm
04:36 AM 25.7°F-3.5°C 10.9°F-11.7°C 53% Calm Calm -- 25.04 in848.0 mb 0.00 in0.0 mm 0.00 in0.0 mm 0.00 in0.0 mm
04:31 AM 26.1°F-3.3°C 10.9°F-11.7°C 52% Calm Calm -- 25.04 in848.0 mb 0.00 in0.0 mm 0.00 in0.0 mm 0.00 in0.0 mm
04:26 AM 27.0°F-2.8°C 11.3°F-11.5°C 51% Calm Calm -- 25.04 in848.0 mb 0.00 in0.0 mm 0.00 in0.0 mm 0.00 in0.0 mm
04:21 AM 27.0°F-2.8°C 11.7°F-11.3°C 52% Calm Calm -- 25.04 in848.0 mb 0.00 in0.0 mm 0.00 in0.0 mm 0.00 in0.0 mm
04:16 AM 26.8°F-2.9°C 12.4°F-10.9°C 54% Calm Calm -- 25.04 in848.0 mb 0.00 in0.0 mm 0.00 in0.0 mm 0.00 in0.0 mm
04:11 AM 26.8°F-2.9°C 12.4°F-10.9°C 54% Calm Calm -- 25.04 in848.0 mb 0.00 in0.0 mm 0.00 in0.0 mm 0.00 in0.0 mm
04:06 AM 26.6°F-3.0°C 13.1°F-10.5°C 56% 1.0 mph SW1.6 kmh SW 3.1 mph5.0 kmh 25.04 in848.0 mb 0.00 in0.0 mm 0.00 in0.0 mm 0.00 in0.0 mm
04:01 AM 26.6°F-3.0°C 13.5°F-10.3°C 57% 2.0 mph SW3.2 kmh SW 3.6 mph5.8 kmh 25.04 in848.0 mb 0.00 in0.0 mm 0.00 in0.0 mm 0.00 in0.0 mm
03:56 AM 27.1°F-2.7°C 13.6°F-10.2°C 56% 2.0 mph SW3.2 kmh SW 4.0 mph6.4 kmh 25.04 in848.0 mb 0.00 in0.0 mm 0.00 in0.0 mm 0.00 in0.0 mm
03:51 AM 27.7°F-2.4°C 14.0°F-10.0°C 56% 2.0 mph SW3.2 kmh SW 4.0 mph6.4 kmh 25.04 in848.0 mb 0.00 in0.0 mm 0.00 in0.0 mm 0.00 in0.0 mm
03:46 AM 27.7°F-2.4°C 15.6°F-9.1°C 60% 2.0 mph SW3.2 kmh SW 4.5 mph7.2 kmh 25.04 in848.0 mb 0.00 in0.0 mm 0.00 in0.0 mm 0.00 in0.0 mm
03:41 AM 28.8°F-1.8°C 18.5°F-7.5°C 65% 2.0 mph SW3.2 kmh SW 4.9 mph7.9 kmh 25.04 in848.0 mb 0.00 in0.0 mm 0.00 in0.0 mm 0.00 in0.0 mm
03:36 AM 28.8°F-1.8°C 18.5°F-7.5°C 65% 2.0 mph SW3.2 kmh SW 4.0 mph6.4 kmh 25.04 in848.0 mb 0.00 in0.0 mm 0.00 in0.0 mm 0.00 in0.0 mm
03:31 AM 28.9°F-1.7°C 19.8°F-6.8°C 68% 3.0 mph SW4.8 kmh SW 4.5 mph7.2 kmh 25.04 in848.0 mb 0.00 in0.0 mm 0.00 in0.0 mm 0.00 in0.0 mm
03:26 AM 28.9°F-1.7°C 20.5°F-6.4°C 70% 5.0 mph SSW8.0 kmh SSW 6.3 mph10.1 kmh 25.04 in848.0 mb 0.00 in0.0 mm 0.00 in0.0 mm 0.00 in0.0 mm
03:21 AM 28.9°F-1.7°C 20.7°F-6.3°C 71% 6.0 mph SSW9.7 kmh SSW 6.9 mph11.1 kmh 25.04 in848.0 mb 0.00 in0.0 mm 0.00 in0.0 mm 0.00 in0.0 mm
03:16 AM 28.9°F-1.7°C 20.7°F-6.3°C 71% 6.0 mph S9.7 kmh S 7.4 mph11.9 kmh 25.04 in848.0 mb 0.00 in0.0 mm 0.00 in0.0 mm 0.00 in0.0 mm
03:11 AM 28.8°F-1.8°C 20.3°F-6.5°C 70% 5.0 mph S8.0 kmh S 7.4 mph11.9 kmh 25.01 in846.9 mb 0.00 in0.0 mm 0.00 in0.0 mm 0.00 in0.0 mm
03:06 AM 28.6°F-1.9°C 19.0°F-7.2°C 67% 5.0 mph S8.0 kmh S 8.7 mph14.0 kmh 25.01 in846.9 mb 0.00 in0.0 mm 0.00 in0.0 mm 0.00 in0.0 mm
03:01 AM 28.8°F-1.8°C 17.8°F-7.9°C 63% 5.0 mph S8.0 kmh S 7.8 mph12.6 kmh 25.01 in846.9 mb 0.00 in0.0 mm 0.00 in0.0 mm 0.00 in0.0 mm
02:56 AM 29.3°F-1.5°C 18.0°F-7.8°C 62% 5.0 mph S8.0 kmh S 8.3 mph13.4 kmh 25.04 in848.0 mb 0.00 in0.0 mm 0.00 in0.0 mm 0.00 in0.0 mm
02:51 AM 29.7°F-1.3°C 16.3°F-8.7°C 57% 6.0 mph S9.7 kmh S 7.4 mph11.9 kmh 25.04 in848.0 mb 0.00 in0.0 mm 0.00 in0.0 mm 0.00 in0.0 mm
02:46 AM 29.3°F-1.5°C 15.6°F-9.1°C 56% 6.0 mph S9.7 kmh S 8.3 mph13.4 kmh 25.04 in848.0 mb 0.00 in0.0 mm 0.00 in0.0 mm 0.00 in0.0 mm
02:41 AM 29.3°F-1.5°C 18.3°F-7.6°C 63% 6.0 mph S9.7 kmh S 8.7 mph14.0 kmh 25.01 in846.9 mb 0.00 in0.0 mm 0.00 in0.0 mm 0.00 in0.0 mm
02:36 AM 29.8°F-1.2°C 20.3°F-6.5°C 67% 6.0 mph S9.7 kmh S 8.7 mph14.0 kmh 25.01 in846.9 mb 0.00 in0.0 mm 0.00 in0.0 mm 0.00 in0.0 mm
02:31 AM 30.6°F-0.8°C 16.3°F-8.7°C 55% 6.0 mph S9.7 kmh S 7.8 mph12.6 kmh 25.01 in846.9 mb 0.00 in0.0 mm 0.00 in0.0 mm 0.00 in0.0 mm
02:26 AM 30.2°F-1.0°C 17.6°F-8.0°C 59% 6.0 mph S9.7 kmh S 9.2 mph14.8 kmh 25.01 in846.9 mb 0.00 in0.0 mm 0.00 in0.0 mm 0.00 in0.0 mm
02:21 AM 30.7°F-0.7°C 14.7°F-9.6°C 51% 7.0 mph S11.3 kmh S 10.1 mph16.3 kmh 25.01 in846.9 mb 0.00 in0.0 mm 0.00 in0.0 mm 0.00 in0.0 mm
02:16 AM 31.5°F-0.3°C 17.2°F-8.2°C 55% 6.0 mph S9.7 kmh S 10.1 mph16.3 kmh 25.01 in846.9 mb 0.00 in0.0 mm 0.00 in0.0 mm 0.00 in0.0 mm
02:11 AM 31.3°F-0.4°C 17.1°F-8.3°C 55% 6.0 mph S9.7 kmh S 8.7 mph14.0 kmh 25.01 in846.9 mb 0.00 in0.0 mm 0.00 in0.0 mm 0.00 in0.0 mm
02:06 AM 31.8°F-0.1°C 15.3°F-9.3°C 50% 7.0 mph S11.3 kmh S 9.6 mph15.4 kmh 25.01 in846.9 mb 0.00 in0.0 mm 0.00 in0.0 mm 0.00 in0.0 mm
02:01 AM 31.8°F-0.1°C 14.9°F-9.5°C 49% 8.0 mph S12.9 kmh S 11.0 mph17.7 kmh 25.01 in846.9 mb 0.00 in0.0 mm 0.00 in0.0 mm 0.00 in0.0 mm
01:56 AM 31.5°F-0.3°C 12.6°F-10.8°C 45% 8.0 mph S12.9 kmh S 11.2 mph18.0 kmh 24.98 in845.9 mb 0.00 in0.0 mm 0.00 in0.0 mm 0.00 in0.0 mm
01:51 AM 32.0°F0.0°C 13.1°F-10.5°C 45% 7.0 mph S11.3 kmh S 13.0 mph20.9 kmh 24.98 in845.9 mb 0.00 in0.0 mm 0.00 in0.0 mm 0.00 in0.0 mm
01:46 AM 31.3°F-0.4°C 14.9°F-9.5°C 50% 6.0 mph S9.7 kmh S 9.6 mph15.4 kmh 24.98 in845.9 mb 0.00 in0.0 mm 0.00 in0.0 mm 0.00 in0.0 mm
01:41 AM 31.3°F-0.4°C 13.8°F-10.1°C 48% 6.0 mph S9.7 kmh S 8.3 mph13.4 kmh 24.98 in845.9 mb 0.00 in0.0 mm 0.00 in0.0 mm 0.00 in0.0 mm
01:36 AM 32.0°F0.0°C 15.4°F-9.2°C 50% 8.0 mph S12.9 kmh S 11.2 mph18.0 kmh 24.98 in845.9 mb 0.00 in0.0 mm 0.00 in0.0 mm 0.00 in0.0 mm
01:31 AM 32.2°F0.1°C 11.7°F-11.3°C 42% 9.0 mph S14.5 kmh S 13.4 mph21.6 kmh 24.98 in845.9 mb 0.00 in0.0 mm 0.00 in0.0 mm 0.00 in0.0 mm
01:26 AM 32.4°F0.2°C 11.8°F-11.2°C 42% 9.0 mph SSW14.5 kmh SSW 12.5 mph20.1 kmh 24.98 in845.9 mb 0.00 in0.0 mm 0.00 in0.0 mm 0.00 in0.0 mm
01:21 AM 32.5°F0.3°C 12.0°F-11.1°C 42% 8.0 mph SSW12.9 kmh SSW 11.2 mph18.0 kmh 24.98 in845.9 mb 0.00 in0.0 mm 0.00 in0.0 mm 0.00 in0.0 mm
01:16 AM 32.2°F0.1°C 12.2°F-11.0°C 43% 7.0 mph S11.3 kmh S 11.2 mph18.0 kmh 24.98 in845.9 mb 0.00 in0.0 mm 0.00 in0.0 mm 0.00 in0.0 mm
01:11 AM 31.8°F-0.1°C 12.9°F-10.6°C 45% 5.0 mph S8.0 kmh S 10.5 mph16.9 kmh 24.98 in845.9 mb 0.00 in0.0 mm 0.00 in0.0 mm 0.00 in0.0 mm
01:06 AM 31.8°F-0.1°C 13.5°F-10.3°C 46% 5.0 mph S8.0 kmh S 7.4 mph11.9 kmh 24.98 in845.9 mb 0.00 in0.0 mm 0.00 in0.0 mm 0.00 in0.0 mm
01:01 AM 31.6°F-0.2°C 12.7°F-10.7°C 45% 5.0 mph S8.0 kmh S 10.1 mph16.3 kmh 24.98 in845.9 mb 0.00 in0.0 mm 0.00 in0.0 mm 0.00 in0.0 mm
12:56 AM 31.3°F-0.4°C 12.9°F-10.6°C 46% 4.0 mph S6.4 kmh S 6.7 mph10.8 kmh 24.95 in844.9 mb 0.00 in0.0 mm 0.00 in0.0 mm 0.00 in0.0 mm
12:51 AM 31.6°F-0.2°C 13.3°F-10.4°C 46% 5.0 mph S8.0 kmh S 6.7 mph10.8 kmh 24.95 in844.9 mb 0.00 in0.0 mm 0.00 in0.0 mm 0.00 in0.0 mm
12:46 AM 31.5°F-0.3°C 13.6°F-10.2°C 47% 5.0 mph SSW8.0 kmh SSW 7.8 mph12.6 kmh 24.95 in844.9 mb 0.00 in0.0 mm 0.00 in0.0 mm 0.00 in0.0 mm
12:41 AM 31.6°F-0.2°C 14.2°F-9.9°C 48% 5.0 mph SW8.0 kmh SW 6.7 mph10.8 kmh 24.95 in844.9 mb 0.00 in0.0 mm 0.00 in0.0 mm 0.00 in0.0 mm
12:36 AM 32.0°F0.0°C 13.6°F-10.2°C 46% 4.0 mph SW6.4 kmh SW 6.7 mph10.8 kmh 24.95 in844.9 mb 0.00 in0.0 mm 0.00 in0.0 mm 0.00 in0.0 mm
12:31 AM 31.5°F-0.3°C 14.5°F-9.7°C 49% 3.0 mph SW4.8 kmh SW 4.5 mph7.2 kmh 24.95 in844.9 mb 0.00 in0.0 mm 0.00 in0.0 mm 0.00 in0.0 mm
12:26 AM 31.6°F-0.2°C 15.1°F-9.4°C 50% 3.0 mph SW4.8 kmh SW 6.3 mph10.1 kmh 24.95 in844.9 mb 0.00 in0.0 mm 0.00 in0.0 mm 0.00 in0.0 mm
12:21 AM 31.6°F-0.2°C 15.1°F-9.4°C 50% 2.0 mph S3.2 kmh S 4.9 mph7.9 kmh 24.95 in844.9 mb 0.00 in0.0 mm 0.00 in0.0 mm 0.00 in0.0 mm
12:16 AM 32.4°F0.2°C 14.9°F-9.5°C 48% 3.0 mph S4.8 kmh S 4.5 mph7.2 kmh 24.95 in844.9 mb 0.00 in0.0 mm 0.00 in0.0 mm 0.00 in0.0 mm
12:11 AM 32.5°F0.3°C 15.1°F-9.4°C 48% 4.0 mph SSW6.4 kmh SSW 6.9 mph11.1 kmh 24.95 in844.9 mb 0.00 in0.0 mm 0.00 in0.0 mm 0.00 in0.0 mm
12:06 AM 32.4°F0.2°C 15.4°F-9.2°C 49% 4.0 mph S6.4 kmh S 6.3 mph10.1 kmh 24.95 in844.9 mb 0.00 in0.0 mm 0.00 in0.0 mm 0.00 in0.0 mm
12:01 AM 32.9°F0.5°C 14.4°F-9.8°C 46% 5.0 mph SE8.0 kmh SE 7.4 mph11.9 kmh 24.95 in844.9 mb 0.00 in0.0 mm 0.00 in0.0 mm 0.00 in0.0 mm